Time;durP1;ratioP1;P1;durP2;ratioP2;P2;SDS_P1;SDS_P2;PMS_P1;PMS_P2;Temp;Humidity;BMP_temperature;BMP_pressure;BME280_temperature;BME280_humidity;BME280_pressure;Samples;Min_cycle;Max_cycle;Signal;HPM_P1;HPM_P2
2022/08/23 00:01:52;;;;;;;0.00;0.00;;;;;;;15.17;92.03;101313.03;5025584;28;20022;-67
2022/08/23 00:04:29;;;;;;;0.10;0.10;;;;;;;15.21;91.77;101308.19;5021539;28;20112;-67
2022/08/23 00:06:55;;;;;;;0.00;0.00;;;;;;;15.22;91.56;101310.75;5024678;28;20576;-67
2022/08/23 00:09:23;;;;;;;0.00;0.00;;;;;;;15.24;91.39;101313.31;5028906;28;20029;-67
2022/08/23 00:11:54;;;;;;;0.10;0.10;;;;;;;15.08;91.24;101298.50;5026283;28;20025;-67
2022/08/23 00:14:23;;;;;;;0.00;0.00;;;;;;;14.99;91.85;101313.66;5024683;28;20394;-67
2022/08/23 00:16:49;;;;;;;0.00;0.00;;;;;;;14.71;91.92;101277.44;5025551;28;20030;-67
2022/08/23 00:19:17;;;;;;;0.00;0.00;;;;;;;14.80;92.33;101322.56;5023389;28;20022;-67
2022/08/23 00:21:44;;;;;;;0.00;0.00;;;;;;;14.48;93.78;101285.69;5023973;28;20120;-67
2022/08/23 00:24:11;;;;;;;0.10;0.10;;;;;;;14.50;95.47;101293.66;5022077;28;20571;-67
2022/08/23 00:26:51;;;;;;;0.00;0.00;;;;;;;14.58;95.05;101310.06;5024108;28;20029;-67
2022/08/23 00:29:17;;;;;;;0.00;0.00;;;;;;;14.65;94.56;101308.53;5020898;28;20167;-68
2022/08/23 00:31:43;;;;;;;0.00;0.00;;;;;;;14.69;93.70;101312.72;5020104;28;20108;-67
2022/08/23 00:34:08;;;;;;;0.00;0.00;;;;;;;14.72;92.71;101303.47;5021769;28;20618;-67
2022/08/23 00:36:33;;;;;;;0.00;0.00;;;;;;;14.72;92.77;101305.28;5022350;28;20036;-67
2022/08/23 00:38:58;;;;;;;0.00;0.00;;;;;;;14.68;93.09;101304.69;5024054;28;20044;-67
2022/08/23 00:41:24;;;;;;;0.00;0.00;;;;;;;14.63;92.71;101310.50;5023901;28;20040;-67
2022/08/23 00:49:27;;;;;;;0.00;0.00;;;;;;;14.38;92.90;101303.69;5025480;28;20044;-67
2022/08/23 00:52:10;;;;;;;0.00;0.00;;;;;;;14.32;92.76;101310.47;5022840;28;20483;-67
2022/08/23 00:54:37;;;;;;;0.00;0.00;;;;;;;14.30;93.15;101309.75;5022872;28;20029;-67
2022/08/23 00:57:05;;;;;;;0.00;0.00;;;;;;;14.28;93.49;101308.19;5022032;28;20041;-67
2022/08/23 00:59:31;;;;;;;0.10;0.10;;;;;;;14.13;94.17;101292.28;5020244;28;20079;-67
2022/08/23 01:01:58;;;;;;;0.00;0.00;;;;;;;14.21;95.05;101307.84;5020199;28;20029;-67
2022/08/23 01:04:26;;;;;;;0.10;0.10;;;;;;;14.16;94.97;101312.81;5027458;28;20029;-67
2022/08/23 01:07:06;;;;;;;0.10;0.10;;;;;;;14.01;94.36;101282.56;5020592;28;20056;-67
2022/08/23 01:09:32;;;;;;;0.00;0.00;;;;;;;14.27;94.62;101317.28;5018163;28;20029;-67
2022/08/23 01:12:03;;;;;;;0.00;0.00;;;;;;;14.28;94.66;101310.88;5019754;28;20043;-67
2022/08/23 01:14:33;;;;;;;0.00;0.00;;;;;;;14.22;94.40;101320.34;5020257;28;20029;-67
2022/08/23 01:17:05;;;;;;;0.00;0.00;;;;;;;14.24;93.84;101313.84;5021728;28;20029;-67
2022/08/23 01:19:35;;;;;;;0.00;0.00;;;;;;;14.26;93.20;101319.09;5021386;28;20075;-67
2022/08/23 01:22:14;;;;;;;0.00;0.00;;;;;;;14.29;93.27;101315.31;5018712;28;20072;-69
2022/08/23 01:24:40;;;;;;;0.00;0.00;;;;;;;14.22;93.16;101312.25;5019759;28;20067;-67
2022/08/23 01:27:06;;;;;;;0.00;0.00;;;;;;;14.23;93.17;101316.66;5023510;28;20508;-67
2022/08/23 01:29:31;;;;;;;0.00;0.00;;;;;;;14.00;93.78;101284.41;5023938;28;20478;-67
2022/08/23 01:31:57;;;;;;;0.00;0.00;;;;;;;14.12;93.84;101314.88;5019728;28;20444;-67
2022/08/23 01:34:27;;;;;;;0.00;0.00;;;;;;;14.06;94.03;101324.38;5022514;28;20033;-67
2022/08/23 01:36:53;;;;;;;0.00;0.00;;;;;;;14.10;94.22;101306.94;5022408;28;20033;-67
2022/08/23 01:39:18;;;;;;;0.00;0.00;;;;;;;14.07;94.57;101306.31;5022044;28;20398;-67
2022/08/23 01:41:44;;;;;;;0.00;0.00;;;;;;;14.08;94.87;101302.63;5024572;28;20060;-67
2022/08/23 01:44:09;;;;;;;0.00;0.00;;;;;;;14.13;95.00;101315.75;5023368;28;20037;-67
2022/08/23 01:46:35;;;;;;;0.00;0.00;;;;;;;14.09;95.85;101302.50;5026384;28;20025;-67
2022/08/23 01:49:03;;;;;;;0.00;0.00;;;;;;;14.08;95.82;101303.50;5024732;28;20040;-67
2022/08/23 01:51:28;;;;;;;0.00;0.00;;;;;;;14.08;96.54;101306.19;5021303;28;20029;-67
2022/08/23 01:53:53;;;;;;;0.00;0.00;;;;;;;14.07;96.78;101304.50;5024894;28;20060;-67
2022/08/23 01:56:20;;;;;;;0.10;0.10;;;;;;;13.95;96.89;101287.50;5024560;28;20032;-67
2022/08/23 01:58:46;;;;;;;0.08;0.08;;;;;;;14.10;96.68;101309.63;5025577;28;20100;-67
2022/08/23 02:01:12;;;;;;;0.08;0.08;;;;;;;14.19;96.86;101312.50;5023790;28;20706;-67
2022/08/23 02:03:37;;;;;;;0.10;0.10;;;;;;;14.23;96.58;101309.44;5023264;28;20075;-67
2022/08/23 02:06:03;;;;;;;0.00;0.00;;;;;;;14.19;96.43;101315.22;5021820;28;20026;-67
2022/08/23 02:11:17;;;;;;;0.00;0.00;;;;;;;14.19;95.54;101301.69;5025955;28;20044;-67
2022/08/23 02:13:43;;;;;;;0.00;0.00;;;;;;;14.16;95.76;101304.69;5018580;28;20501;-67
2022/08/23 02:16:09;;;;;;;0.00;0.00;;;;;;;14.12;96.21;101314.88;5027185;28;20025;-67
2022/08/23 02:18:35;;;;;;;0.00;0.00;;;;;;;14.03;96.10;101304.88;5029364;28;20021;-67
2022/08/23 02:21:00;;;;;;;0.03;0.03;;;;;;;14.03;96.11;101308.44;5030015;28;20628;-67
2022/08/23 02:23:26;;;;;;;0.00;0.00;;;;;;;14.01;95.75;101317.66;5028059;28;20116;-67
2022/08/23 02:25:52;;;;;;;0.00;0.00;;;;;;;14.03;95.77;101305.72;5028349;28;20060;-67
2022/08/23 02:28:18;;;;;;;0.00;0.00;;;;;;;14.10;96.24;101308.75;5026833;28;20029;-67
2022/08/23 02:30:44;;;;;;;0.00;0.00;;;;;;;13.95;95.38;101286.63;5023842;28;20071;-67
2022/08/23 02:33:09;;;;;;;0.00;0.00;;;;;;;14.05;95.71;101300.19;5023696;28;20402;-67
2022/08/23 02:35:35;;;;;;;0.10;0.10;;;;;;;14.07;95.59;101306.31;5024194;28;20031;-67
2022/08/23 02:38:06;;;;;;;0.00;0.00;;;;;;;13.97;95.12;101306.25;5023284;28;20483;-67
2022/08/23 02:40:31;;;;;;;0.00;0.00;;;;;;;13.86;95.38;101304.47;5026884;28;20025;-68
2022/08/23 02:42:58;;;;;;;0.00;0.00;;;;;;;13.81;96.09;101301.28;5021915;28;20491;-67
2022/08/23 02:45:24;;;;;;;0.00;0.00;;;;;;;13.72;96.33;101307.47;5026544;28;20127;-67
2022/08/23 02:47:50;;;;;;;0.00;0.00;;;;;;;13.65;96.67;101302.59;5024641;28;20108;-68
2022/08/23 02:50:15;;;;;;;0.00;0.00;;;;;;;13.71;97.28;101300.38;5026079;28;20447;-67
2022/08/23 02:52:40;;;;;;;0.00;0.00;;;;;;;13.78;97.31;101315.03;5027230;28;20083;-67
2022/08/23 02:55:06;;;;;;;0.00;0.00;;;;;;;13.67;96.34;101297.06;5024849;28;20045;-67
2022/08/23 02:57:32;;;;;;;0.00;0.00;;;;;;;13.70;95.97;101314.84;5026775;28;20029;-68
2022/08/23 02:59:57;;;;;;;0.00;0.00;;;;;;;13.59;95.96;101297.69;5026243;28;20033;-67
2022/08/23 03:02:22;;;;;;;0.00;0.00;;;;;;;13.58;95.88;101314.88;5019506;28;20075;-67
2022/08/23 03:04:48;;;;;;;0.10;0.10;;;;;;;13.55;96.57;101312.44;5024655;28;20061;-67
2022/08/23 03:07:13;;;;;;;0.10;0.10;;;;;;;13.50;96.73;101318.22;5023998;28;21922;-67
2022/08/23 03:09:39;;;;;;;0.03;0.03;;;;;;;13.43;96.52;101308.06;5016007;28;20063;-67
2022/08/23 03:12:04;;;;;;;0.00;0.00;;;;;;;13.49;97.48;101329.97;5023745;28;20033;-67
2022/08/23 03:14:29;;;;;;;0.10;0.10;;;;;;;13.55;97.04;101322.38;5023061;28;20071;-67
2022/08/23 03:16:55;;;;;;;0.10;0.10;;;;;;;13.57;96.56;101325.81;5025152;28;20116;-67
2022/08/23 03:19:20;;;;;;;0.00;0.00;;;;;;;13.60;97.11;101330.94;5024811;28;20120;-67
2022/08/23 03:21:45;;;;;;;0.10;0.10;;;;;;;13.60;96.37;101320.16;5024125;28;20021;-67
2022/08/23 03:24:11;;;;;;;0.10;0.10;;;;;;;13.59;96.35;101326.53;5020413;28;20056;-69
2022/08/23 03:26:37;;;;;;;0.05;0.05;;;;;;;13.49;95.96;101321.88;5022295;28;20047;-67
2022/08/23 03:29:02;;;;;;;0.10;0.10;;;;;;;13.55;95.59;101350.19;5021873;28;20080;-67
2022/08/23 03:31:28;;;;;;;0.00;0.00;;;;;;;13.50;95.80;101350.59;5023555;28;20056;-67
2022/08/23 03:33:53;;;;;;;0.00;0.00;;;;;;;13.35;97.13;101328.38;5026219;28;20060;-67
2022/08/23 03:36:19;;;;;;;0.00;0.00;;;;;;;13.65;97.63;101347.59;5020157;28;20099;-68
2022/08/23 03:38:45;;;;;;;0.00;0.00;;;;;;;13.74;97.99;101352.22;5027326;28;20558;-67
2022/08/23 03:41:11;;;;;;;0.00;0.00;;;;;;;13.65;97.40;101329.56;5026564;28;20072;-68
2022/08/23 03:43:36;;;;;;;0.03;0.03;;;;;;;13.88;97.92;101355.63;5020138;28;20357;-67
2022/08/23 03:46:02;;;;;;;0.03;0.03;;;;;;;13.85;97.22;101354.03;5016560;28;20034;-67
2022/08/23 03:48:28;;;;;;;0.00;0.00;;;;;;;13.90;97.36;101359.06;5025326;28;20383;-67
2022/08/23 03:50:53;;;;;;;0.00;0.00;;;;;;;14.01;97.38;101367.09;5027423;28;20486;-67
2022/08/23 03:53:18;;;;;;;0.00;0.00;;;;;;;14.07;96.84;101363.00;5024242;28;20025;-67
2022/08/23 03:55:44;;;;;;;0.00;0.00;;;;;;;14.06;96.45;101367.56;5026333;28;20029;-66
2022/08/23 03:58:10;;;;;;;0.03;0.03;;;;;;;14.06;97.68;101366.69;5024710;28;20029;-66
2022/08/23 04:00:36;;;;;;;0.00;0.00;;;;;;;14.02;97.04;101365.28;5022307;28;20064;-66
2022/08/23 04:03:01;;;;;;;0.00;0.00;;;;;;;14.11;97.35;101375.28;5025257;28;20025;-66
2022/08/23 04:05:27;;;;;;;0.00;0.00;;;;;;;14.21;97.48;101376.22;5024382;28;20025;-66
2022/08/23 04:07:53;;;;;;;0.00;0.00;;;;;;;14.26;97.27;101375.81;5023208;28;20075;-66
2022/08/23 04:10:19;;;;;;;0.05;0.05;;;;;;;14.26;97.71;101373.13;5019442;28;20029;-66
2022/08/23 04:12:45;;;;;;;0.00;0.00;;;;;;;14.28;97.21;101373.84;5021852;28;20029;-66
2022/08/23 04:15:10;;;;;;;0.10;0.10;;;;;;;14.25;97.09;101374.97;5022570;28;20056;-66
2022/08/23 04:17:36;;;;;;;0.10;0.10;;;;;;;14.09;97.57;101355.63;5022755;28;20029;-66
2022/08/23 04:20:04;;;;;;;0.10;0.10;;;;;;;14.09;97.97;101385.34;5024437;28;20036;-66
2022/08/23 04:22:29;;;;;;;0.00;0.00;;;;;;;14.07;99.13;101377.38;5022304;28;20107;-66
2022/08/23 04:24:54;;;;;;;0.00;0.00;;;;;;;14.14;99.75;101383.13;5022352;28;20124;-66
2022/08/23 04:27:21;;;;;;;0.10;0.10;;;;;;;14.23;99.36;101385.06;5022081;28;20109;-66
2022/08/23 04:29:46;;;;;;;0.00;0.00;;;;;;;14.20;99.11;101368.22;5022828;28;20128;-66
2022/08/23 04:32:11;;;;;;;0.10;0.10;;;;;;;14.34;98.80;101380.56;5019790;28;20033;-66
2022/08/23 04:34:41;;;;;;;0.10;0.10;;;;;;;14.43;98.57;101381.63;5023300;28;20521;-66
2022/08/23 04:37:07;;;;;;;0.05;0.05;;;;;;;14.50;98.62;101385.50;5025037;28;20026;-66
2022/08/23 04:42:16;;;;;;;0.10;0.10;;;;;;;14.58;98.37;101380.31;5021829;28;20076;-66
2022/08/23 04:42:18;;;;;;;0.10;0.10;;;;;;;14.60;98.48;101388.28;5018592;28;20720;-66
2022/08/23 04:44:43;;;;;;;0.10;0.10;;;;;;;14.60;98.41;101378.34;5021989;28;20543;-66
2022/08/23 04:47:09;;;;;;;0.00;0.00;;;;;;;14.58;98.91;101383.00;5022315;28;20842;-66
2022/08/23 04:49:34;;;;;;;0.15;0.15;;;;;;;14.51;98.95;101398.91;5023361;28;20167;-66
2022/08/23 04:51:59;;;;;;;1.95;1.52;;;;;;;14.51;99.24;101390.78;5021641;28;20064;-66
2022/08/23 04:54:25;;;;;;;0.20;0.20;;;;;;;14.58;99.44;101398.34;5003536;28;20049;-66
2022/08/23 04:56:51;;;;;;;0.10;0.10;;;;;;;14.39;99.92;101360.28;5023715;28;20249;-66
2022/08/23 04:59:16;;;;;;;0.00;0.00;;;;;;;14.62;99.64;101395.28;5021270;28;20535;-66
2022/08/23 05:01:42;;;;;;;0.00;0.00;;;;;;;14.46;99.87;101384.94;5021573;28;20502;-66
2022/08/23 05:04:07;;;;;;;0.10;0.10;;;;;;;14.51;100.00;101396.19;5022561;28;20060;-64
2022/08/23 05:06:33;;;;;;;0.10;0.10;;;;;;;14.55;100.00;101404.88;5017064;28;20132;-68
2022/08/23 05:09:00;;;;;;;0.08;0.08;;;;;;;14.46;100.00;101386.75;5021763;28;20125;-66
2022/08/23 05:11:25;;;;;;;0.10;0.10;;;;;;;14.65;100.00;101403.13;5016144;28;20040;-66
2022/08/23 05:13:51;;;;;;;0.10;0.10;;;;;;;14.74;99.73;101408.72;5025243;28;20029;-68
2022/08/23 05:16:17;;;;;;;0.10;0.10;;;;;;;14.78;100.00;101407.47;5026332;28;20057;-66
2022/08/23 05:18:42;;;;;;;0.10;0.10;;;;;;;14.65;100.00;101391.44;5022954;28;20039;-69
2022/08/23 05:21:07;;;;;;;0.10;0.10;;;;;;;14.72;100.00;101408.88;5024187;28;20049;-67
2022/08/23 05:23:33;;;;;;;0.10;0.10;;;;;;;14.73;100.00;101407.88;5024341;28;20036;-66
2022/08/23 05:25:58;;;;;;;0.10;0.10;;;;;;;14.79;100.00;101398.38;5024953;28;20104;-66
2022/08/23 05:28:30;;;;;;;0.03;0.03;;;;;;;14.86;100.00;101399.56;5022797;28;20563;-68
2022/08/23 05:31:08;;;;;;;0.00;0.00;;;;;;;14.94;100.00;101399.75;5018387;28;20060;-66
2022/08/23 05:33:35;;;;;;;0.00;0.00;;;;;;;15.02;100.00;101403.63;5018820;28;20056;-66
2022/08/23 05:36:01;;;;;;;0.05;0.05;;;;;;;15.11;100.00;101405.53;5021691;28;20036;-66
2022/08/23 05:38:26;;;;;;;0.03;0.03;;;;;;;15.21;100.00;101414.53;5010502;28;20554;-66
2022/08/23 05:40:53;;;;;;;0.00;0.00;;;;;;;15.37;100.00;101411.31;5019935;28;20128;-66
2022/08/23 05:43:20;;;;;;;0.03;0.03;;;;;;;15.54;100.00;101415.19;5018407;28;20517;-66
2022/08/23 05:45:46;;;;;;;0.03;0.03;;;;;;;15.68;100.00;101410.41;5013494;28;20036;-66
2022/08/23 05:48:14;;;;;;;0.03;0.03;;;;;;;15.85;100.00;101422.41;5019808;28;20025;-66
2022/08/23 05:50:40;;;;;;;0.00;0.00;;;;;;;16.01;100.00;101428.16;5020637;28;20419;-66
2022/08/23 05:53:06;;;;;;;0.10;0.10;;;;;;;16.17;100.00;101418.59;5020398;28;20033;-66
2022/08/23 05:55:32;;;;;;;0.10;0.10;;;;;;;16.28;100.00;101432.03;5021918;28;20025;-66
2022/08/23 05:57:57;;;;;;;0.00;0.00;;;;;;;16.36;100.00;101428.59;5015509;28;20029;-66
2022/08/23 06:00:22;;;;;;;0.00;0.00;;;;;;;16.44;100.00;101439.56;5019238;28;20021;-66
2022/08/23 06:02:48;;;;;;;0.00;0.00;;;;;;;16.57;100.00;101438.41;5019171;28;20441;-66
2022/08/23 06:05:14;;;;;;;0.10;0.10;;;;;;;16.67;100.00;101438.44;5022118;28;20029;-66
2022/08/23 06:07:40;;;;;;;0.10;0.10;;;;;;;16.82;99.20;101436.94;5018441;28;20048;-66
2022/08/23 06:10:07;;;;;;;0.08;0.08;;;;;;;17.01;99.32;101446.06;5017256;28;20495;-66
2022/08/23 06:12:32;;;;;;;0.10;0.10;;;;;;;17.08;98.12;101439.06;5017683;28;20037;-66
2022/08/23 06:14:58;;;;;;;0.03;0.03;;;;;;;17.27;98.10;101448.13;5014584;28;20503;-70
2022/08/23 06:17:23;;;;;;;0.00;0.00;;;;;;;17.46;98.96;101445.34;5016514;28;20107;-66
2022/08/23 06:19:48;;;;;;;0.00;0.00;;;;;;;17.73;98.16;101448.19;5018417;28;20414;-65
2022/08/23 06:22:13;;;;;;;0.10;0.10;;;;;;;18.02;97.11;101442.59;5015431;28;20041;-67
2022/08/23 06:24:39;;;;;;;0.00;0.00;;;;;;;18.29;94.42;101443.53;5014846;28;20036;-68
2022/08/23 06:27:04;;;;;;;0.00;0.00;;;;;;;18.58;92.68;101439.69;5019779;28;20144;-68
2022/08/23 06:29:29;;;;;;;0.00;0.00;;;;;;;18.83;91.06;101454.34;5018535;28;20061;-69
2022/08/23 06:31:55;;;;;;;0.35;0.17;;;;;;;19.02;89.36;101450.59;5018210;28;20041;-72
2022/08/23 06:34:22;;;;;;;0.95;0.40;;;;;;;19.24;87.75;101442.03;5021608;28;20049;-70
2022/08/23 06:36:55;;;;;;;0.20;0.20;;;;;;;19.45;86.59;101447.94;5019340;28;20079;-70
2022/08/23 06:39:22;;;;;;;0.20;0.20;;;;;;;19.68;85.58;101447.34;5014500;28;20021;-72
2022/08/23 06:41:48;;;;;;;0.13;0.13;;;;;;;19.81;85.08;101426.94;5016013;28;20044;-70
2022/08/23 06:44:14;;;;;;;0.75;0.30;;;;;;;20.04;83.98;101441.66;5014129;28;20484;-70
2022/08/23 06:46:39;;;;;;;0.20;0.20;;;;;;;20.21;81.52;101444.44;5012271;28;20504;-70
2022/08/23 06:49:06;;;;;;;0.13;0.10;;;;;;;20.32;82.16;101438.63;5020655;28;20163;-70
2022/08/23 06:51:37;;;;;;;0.10;0.10;;;;;;;20.51;82.12;101436.59;5019697;28;20116;-70
2022/08/23 06:54:05;;;;;;;0.63;0.50;;;;;;;20.67;81.90;101436.59;5015290;28;20029;-71
2022/08/23 06:56:31;;;;;;;0.30;0.30;;;;;;;20.80;78.17;101444.28;5014733;28;20029;-70
2022/08/23 06:58:57;;;;;;;0.10;0.10;;;;;;;20.73;77.00;101418.66;5014599;28;20471;-70
2022/08/23 07:01:40;;;;;;;0.10;0.10;;;;;;;21.01;78.40;101437.41;5018122;28;20079;-70
2022/08/23 07:04:07;;;;;;;0.10;0.10;;;;;;;21.16;78.22;101434.81;5019730;28;20029;-70
2022/08/23 07:06:33;;;;;;;0.10;0.10;;;;;;;21.33;77.45;101440.22;5023356;28;20079;-70
2022/08/23 07:08:58;;;;;;;0.00;0.00;;;;;;;21.31;78.02;101414.97;5021871;28;20033;-70
2022/08/23 07:11:25;;;;;;;0.00;0.00;;;;;;;21.51;75.84;101443.56;5019226;28;20076;-70
2022/08/23 07:13:51;;;;;;;0.00;0.00;;;;;;;21.34;73.55;101422.78;5023982;28;20120;-70
2022/08/23 07:16:17;;;;;;;0.00;0.00;;;;;;;21.58;72.83;101450.00;5019476;28;20117;-70
2022/08/23 07:18:44;;;;;;;0.00;0.00;;;;;;;21.72;71.42;101450.34;5021635;28;20025;-70
2022/08/23 07:21:11;;;;;;;0.05;0.05;;;;;;;21.76;69.10;101451.69;5013644;28;20022;-70
2022/08/23 07:23:38;;;;;;;0.10;0.10;;;;;;;21.81;68.97;101457.47;5016963;28;20029;-71
2022/08/23 07:26:08;;;;;;;0.20;0.20;;;;;;;21.79;70.87;101437.66;5019712;28;20499;-70
2022/08/23 07:28:33;;;;;;;0.00;0.00;;;;;;;21.93;69.01;101455.19;5020246;28;20033;-71
2022/08/23 07:31:20;;;;;;;0.00;0.00;;;;;;;21.90;67.18;101458.28;5018800;28;20481;-70
2022/08/23 07:33:47;;;;;;;0.10;0.10;;;;;;;21.93;68.46;101457.91;5013300;28;20462;-68
2022/08/23 07:36:15;;;;;;;0.00;0.00;;;;;;;21.87;68.74;101451.25;5017677;28;20037;-73
2022/08/23 07:38:41;;;;;;;0.00;0.00;;;;;;;21.99;69.40;101462.63;5019766;28;20186;-73
2022/08/23 07:41:06;;;;;;;0.00;0.00;;;;;;;22.12;71.08;101466.69;5022756;28;20081;-73
2022/08/23 07:43:32;;;;;;;0.00;0.00;;;;;;;22.23;69.58;101451.72;5020421;28;20037;-74
2022/08/23 07:45:57;;;;;;;0.00;0.00;;;;;;;22.27;67.00;101464.00;5022448;28;20399;-74
2022/08/23 07:48:23;;;;;;;0.00;0.00;;;;;;;22.38;68.18;101471.78;5023914;28;20033;-73
2022/08/23 07:50:53;;;;;;;0.08;0.08;;;;;;;22.47;67.39;101465.25;5022488;28;20052;-73
2022/08/23 07:53:18;;;;;;;0.00;0.00;;;;;;;22.59;67.63;101481.25;5014583;28;20057;-74
2022/08/23 07:55:44;;;;;;;0.00;0.00;;;;;;;22.70;69.51;101474.47;5020072;28;20029;-73
2022/08/23 07:58:09;;;;;;;0.00;0.00;;;;;;;22.87;67.32;101475.19;5021395;28;20028;-73
2022/08/23 08:00:35;;;;;;;0.10;0.10;;;;;;;23.00;67.04;101477.28;5021649;28;20021;-74
2022/08/23 08:03:00;;;;;;;0.00;0.00;;;;;;;23.10;66.24;101468.78;5020610;28;20087;-73
2022/08/23 08:05:26;;;;;;;0.00;0.00;;;;;;;23.19;65.15;101487.69;5020440;28;20270;-73
2022/08/23 08:07:51;;;;;;;0.00;0.00;;;;;;;23.39;66.03;101486.31;5018855;28;20026;-74
2022/08/23 08:10:16;;;;;;;0.00;0.00;;;;;;;23.55;65.61;101482.53;5023567;28;20053;-73
2022/08/23 08:12:42;;;;;;;0.00;0.00;;;;;;;23.65;64.45;101480.31;5040306;28;20032;-74
2022/08/23 08:15:08;;;;;;;0.05;0.05;;;;;;;23.67;62.99;101483.72;5020186;28;20486;-74
2022/08/23 08:17:33;;;;;;;0.00;0.00;;;;;;;23.75;65.19;101477.28;5022292;28;20513;-74
2022/08/23 08:19:58;;;;;;;0.00;0.00;;;;;;;23.81;61.77;101487.47;5023765;28;20501;-73
2022/08/23 08:22:24;;;;;;;0.00;0.00;;;;;;;23.88;61.82;101485.69;5022950;28;20068;-73
2022/08/23 08:24:49;;;;;;;0.00;0.00;;;;;;;24.08;63.00;101487.81;5023896;28;20091;-73
2022/08/23 08:27:14;;;;;;;0.00;0.00;;;;;;;24.05;61.95;101478.09;5025166;28;20114;-73
2022/08/23 08:29:41;;;;;;;0.10;0.08;;;;;;;24.20;61.54;101480.81;5024877;28;20056;-74
2022/08/23 08:32:07;;;;;;;0.00;0.00;;;;;;;24.39;61.30;101486.69;5024036;28;20022;-74
2022/08/23 08:34:33;;;;;;;0.30;0.30;;;;;;;24.59;62.21;101489.63;5024219;28;20022;-74
2022/08/23 08:36:58;;;;;;;0.10;0.10;;;;;;;24.80;61.41;101490.66;5023102;28;20036;-74
2022/08/23 08:39:29;;;;;;;0.00;0.00;;;;;;;24.86;60.05;101490.72;5023198;28;20595;-74
2022/08/23 08:42:04;;;;;;;0.17;0.13;;;;;;;24.82;58.32;101494.06;5025399;28;20029;-74
2022/08/23 08:44:52;;;;;;;0.30;0.30;;;;;;;24.96;55.92;101482.13;5019342;28;20490;-73
2022/08/23 08:47:28;;;;;;;0.00;0.00;;;;;;;25.15;55.46;101487.97;5024185;28;20040;-74
2022/08/23 08:50:09;;;;;;;0.00;0.00;;;;;;;25.20;54.75;101470.88;5021099;28;20032;-73
2022/08/23 08:52:42;;;;;;;0.00;0.00;;;;;;;25.27;55.74;101491.00;5018617;28;20486;-74
2022/08/23 08:55:12;;;;;;;0.00;0.00;;;;;;;25.44;57.44;101494.28;5021210;28;20075;-74
2022/08/23 08:57:39;;;;;;;0.00;0.00;;;;;;;25.47;56.18;101477.38;5019050;28;20304;-73
2022/08/23 09:00:22;;;;;;;0.10;0.00;;;;;;;25.48;54.41;101479.09;5023676;28;20029;-73
2022/08/23 09:02:47;;;;;;;0.00;0.00;;;;;;;25.80;55.62;101506.13;5020643;28;20094;-73
2022/08/23 09:05:16;;;;;;;0.00;0.00;;;;;;;25.73;52.85;101486.81;5021046;28;20029;-73
2022/08/23 09:08:07;;;;;;;0.00;0.00;;;;;;;25.86;52.02;101506.13;5019287;28;20384;-74
2022/08/23 09:10:52;;;;;;;0.00;0.00;;;;;;;25.71;51.39;101497.16;5023854;28;20040;-74
2022/08/23 09:13:52;;;;;;;0.00;0.00;;;;;;;25.64;51.11;101501.81;5019618;28;20037;-74
2022/08/23 09:16:31;;;;;;;0.00;0.00;;;;;;;25.68;49.83;101503.94;4999787;28;20120;-73
2022/08/23 09:18:59;;;;;;;0.40;0.30;;;;;;;25.82;51.86;101504.00;5016090;28;20411;-74
2022/08/23 09:21:25;;;;;;;0.00;0.00;;;;;;;25.85;51.54;101496.19;5004391;28;20030;-75
2022/08/23 09:23:50;;;;;;;0.00;0.00;;;;;;;25.73;51.22;101481.31;5020169;28;20040;-74
2022/08/23 09:26:29;;;;;;;0.00;0.00;;;;;;;26.03;52.94;101503.88;5018505;28;20028;-75
2022/08/23 09:28:59;;;;;;;0.00;0.00;;;;;;;26.24;50.84;101501.19;5020832;28;20632;-74
2022/08/23 09:31:49;;;;;;;0.00;0.00;;;;;;;26.33;48.75;101500.81;5013994;28;20049;-74
2022/08/23 09:34:33;;;;;;;0.00;0.00;;;;;;;26.73;53.25;101497.25;5020181;28;20140;-74
2022/08/23 09:37:09;;;;;;;0.00;0.00;;;;;;;27.12;48.98;101496.59;5018927;28;20037;-73
2022/08/23 09:39:37;;;;;;;0.00;0.00;;;;;;;26.72;47.17;101495.56;5016234;28;20029;-75
2022/08/23 09:42:03;;;;;;;0.00;0.00;;;;;;;27.10;49.76;101502.34;5015374;28;20017;-74
2022/08/23 09:44:31;;;;;;;0.00;0.00;;;;;;;27.62;47.59;101496.91;5017525;28;20041;-72
2022/08/23 09:47:15;;;;;;;0.00;0.00;;;;;;;27.98;46.13;101484.47;5018443;28;20071;-72
2022/08/23 09:49:43;;;;;;;0.00;0.00;;;;;;;28.32;46.27;101497.25;5016285;28;20063;-74
2022/08/23 09:52:19;;;;;;;0.00;0.00;;;;;;;28.54;45.65;101489.44;5016316;28;20022;-74
2022/08/23 09:54:59;;;;;;;0.00;0.00;;;;;;;28.02;46.23;101500.59;5025471;28;20052;-71
2022/08/23 09:57:27;;;;;;;0.00;0.00;;;;;;;27.60;47.30;101485.25;5023941;28;20044;-74
2022/08/23 09:59:55;;;;;;;0.00;0.00;;;;;;;27.87;47.92;101485.13;5026057;28;20041;-74
2022/08/23 10:02:20;;;;;;;0.00;0.00;;;;;;;27.89;48.38;101493.22;5018317;28;20064;-73
2022/08/23 10:05:05;;;;;;;0.00;0.00;;;;;;;27.79;45.97;101485.41;5015688;28;20551;-74
2022/08/23 10:07:42;;;;;;;0.00;0.00;;;;;;;28.03;46.50;101482.97;5020919;28;20387;-74
2022/08/23 10:10:23;;;;;;;0.00;0.00;;;;;;;27.77;45.24;101484.78;5015808;28;20037;-74
2022/08/23 10:12:49;;;;;;;0.00;0.00;;;;;;;28.05;46.93;101484.41;5018705;28;20025;-73
2022/08/23 10:15:14;;;;;;;0.00;0.00;;;;;;;27.72;46.12;101490.94;5020024;28;20056;-74
2022/08/23 10:18:05;;;;;;;0.00;0.00;;;;;;;27.51;45.10;101473.63;5022418;28;20029;-74
2022/08/23 10:20:34;;;;;;;0.00;0.00;;;;;;;27.55;47.06;101482.31;5013232;28;20033;-72
2022/08/23 10:23:18;;;;;;;0.00;0.00;;;;;;;27.30;49.77;101479.41;5019510;28;20036;-72
2022/08/23 10:25:48;;;;;;;0.00;0.00;;;;;;;27.24;47.30;101457.13;5018290;28;20042;-72
2022/08/23 10:31:31;;;;;;;0.00;0.00;;;;;;;27.81;47.26;101480.53;5017560;28;20028;-73
2022/08/23 10:34:29;;;;;;;0.00;0.00;;;;;;;27.93;45.33;101477.91;5018146;28;20029;-75
2022/08/23 10:37:07;;;;;;;0.00;0.00;;;;;;;27.80;46.54;101463.13;5018874;28;20038;-72
2022/08/23 10:39:32;;;;;;;0.00;0.00;;;;;;;28.39;45.34;101476.81;5027457;28;20060;-73
2022/08/23 10:42:05;;;;;;;0.00;0.00;;;;;;;28.88;45.12;101476.22;5026547;28;20033;-74
2022/08/23 10:44:39;;;;;;;0.00;0.00;;;;;;;29.13;44.04;101478.97;5024830;28;20033;-74
2022/08/23 10:47:18;;;;;;;0.00;0.00;;;;;;;28.70;43.38;101488.03;5021014;28;20452;-73
2022/08/23 10:49:45;;;;;;;0.10;0.00;;;;;;;28.83;42.06;101485.19;5022802;28;20057;-73
2022/08/23 10:52:20;;;;;;;0.00;0.00;;;;;;;28.40;42.91;101485.91;5021413;28;20029;-73
2022/08/23 10:54:59;;;;;;;0.00;0.00;;;;;;;28.55;41.93;101480.94;5023412;28;20523;-71
2022/08/23 10:57:32;;;;;;;0.00;0.00;;;;;;;29.10;41.89;101465.59;5018722;28;21934;-72
2022/08/23 10:59:58;;;;;;;0.00;0.00;;;;;;;29.33;42.12;101478.72;5019894;28;20037;-73
2022/08/23 11:02:56;;;;;;;0.00;0.00;;;;;;;29.54;40.30;101465.53;5019433;28;20098;-74
2022/08/23 11:05:26;;;;;;;0.00;0.00;;;;;;;29.51;43.41;101470.69;5022137;28;20577;-72
2022/08/23 11:07:57;;;;;;;0.00;0.00;;;;;;;29.02;41.24;101461.19;5017828;28;20493;-75
2022/08/23 11:10:44;;;;;;;0.00;0.00;;;;;;;28.90;41.17;101474.06;5034206;28;20029;-74
2022/08/23 11:13:10;;;;;;;0.00;0.00;;;;;;;29.32;41.48;101468.72;5015160;28;20037;-74
2022/08/23 11:16:12;;;;;;;0.00;0.00;;;;;;;29.34;41.60;101461.06;5021674;28;20021;-74
2022/08/23 11:18:46;;;;;;;0.00;0.00;;;;;;;28.83;40.61;101462.22;5023452;28;20635;-71
2022/08/23 11:21:17;;;;;;;0.00;0.00;;;;;;;28.88;41.60;101460.47;5018970;28;20032;-75
2022/08/23 11:23:47;;;;;;;0.00;0.00;;;;;;;29.21;41.05;101469.50;5019575;28;20067;-75
2022/08/23 11:26:21;;;;;;;0.00;0.00;;;;;;;29.53;41.03;101466.59;5020493;28;20040;-74
2022/08/23 11:28:49;;;;;;;0.00;0.00;;;;;;;29.84;39.31;101472.19;5019682;28;20041;-75
2022/08/23 11:31:28;;;;;;;0.00;0.00;;;;;;;29.71;40.34;101476.81;5013010;28;20064;-73
2022/08/23 11:34:08;;;;;;;0.00;0.00;;;;;;;29.30;39.98;101479.19;5017126;28;20039;-74
2022/08/23 11:36:34;;;;;;;0.00;0.00;;;;;;;29.91;40.46;101476.53;5023543;28;20073;-72
2022/08/23 11:39:10;;;;;;;0.00;0.00;;;;;;;30.15;39.78;101473.91;5026353;28;20418;-70
2022/08/23 11:41:55;;;;;;;0.00;0.00;;;;;;;30.24;39.32;101477.16;5018652;28;20056;-73
2022/08/23 11:44:27;;;;;;;0.00;0.00;;;;;;;29.91;40.51;101456.34;5023792;28;20494;-72